Time;durP1;ratioP1;P1;durP2;ratioP2;P2;SDS_P1;SDS_P2;PMS_P1;PMS_P2;Temp;Humidity;BMP_temperature;BMP_pressure;BME280_temperature;BME280_humidity;BME280_pressure;Samples;Min_cycle;Max_cycle;Signal;HPM_P1;HPM_P2
2022/11/15 00:01:13;;;;;;;1.20;1.02;;;6.00;99.90;;;;;;5067938;28;20427;-77
2022/11/15 00:03:40;;;;;;;1.20;1.10;;;6.10;99.90;;;;;;5057749;28;20549;-77
2022/11/15 00:06:08;;;;;;;1.15;1.10;;;6.30;99.90;;;;;;5052407;28;20421;-77
2022/11/15 00:08:35;;;;;;;1.88;1.77;;;6.40;99.90;;;;;;5068509;28;20429;-76
2022/11/15 00:11:02;;;;;;;2.97;1.73;;;6.40;99.90;;;;;;5068297;28;20514;-77
2022/11/15 00:13:30;;;;;;;3.10;2.30;;;6.40;99.90;;;;;;5068813;28;20438;-77
2022/11/15 00:16:00;;;;;;;2.83;2.20;;;6.50;99.90;;;;;;5065901;28;20976;-77
2022/11/15 00:18:28;;;;;;;2.17;1.98;;;6.50;99.90;;;;;;5059228;28;20423;-78
2022/11/15 00:20:55;;;;;;;4.40;1.60;;;6.60;99.90;;;;;;5056327;28;20429;-77
2022/11/15 00:23:22;;;;;;;3.60;1.77;;;6.60;99.90;;;;;;5069516;28;20778;-77
2022/11/15 00:25:56;;;;;;;1.98;1.88;;;6.70;99.90;;;;;;5067124;28;20429;-78
2022/11/15 00:28:23;;;;;;;1.30;1.23;;;6.70;99.90;;;;;;5066613;28;20435;-78
2022/11/15 00:30:53;;;;;;;1.20;1.10;;;6.70;99.90;;;;;;5062372;28;20959;-77
2022/11/15 00:33:19;;;;;;;3.53;1.73;;;6.80;99.90;;;;;;5066192;28;20428;-78
2022/11/15 00:35:46;;;;;;;2.37;1.67;;;6.80;99.90;;;;;;5054113;28;21628;-78
2022/11/15 00:38:13;;;;;;;1.27;1.17;;;6.80;99.90;;;;;;5055133;28;20433;-78
2022/11/15 00:40:40;;;;;;;1.77;1.67;;;6.80;99.90;;;;;;5061552;28;20432;-78
2022/11/15 00:43:07;;;;;;;5.10;1.60;;;6.80;99.90;;;;;;5063917;28;20438;-77
2022/11/15 00:45:34;;;;;;;1.60;1.42;;;6.80;99.90;;;;;;5065503;28;20461;-77
2022/11/15 00:48:00;;;;;;;2.22;1.52;;;6.90;99.90;;;;;;5057853;28;20431;-77
2022/11/15 00:50:30;;;;;;;1.80;1.25;;;6.90;99.90;;;;;;5060442;28;20493;-77
2022/11/15 00:52:56;;;;;;;1.02;1.00;;;6.90;99.90;;;;;;5055946;28;20440;-77
2022/11/15 00:55:23;;;;;;;1.80;1.63;;;6.90;99.90;;;;;;5062130;28;20439;-77
2022/11/15 00:57:49;;;;;;;1.40;1.30;;;6.90;99.90;;;;;;5060610;28;20425;-77
2022/11/15 01:00:16;;;;;;;1.30;1.10;;;6.90;99.90;;;;;;5053651;28;20521;-78
2022/11/15 01:02:46;;;;;;;0.85;0.85;;;6.90;99.90;;;;;;5065809;28;20441;-77
2022/11/15 01:05:13;;;;;;;1.15;0.93;;;6.80;99.90;;;;;;5066889;28;20434;-78
2022/11/15 01:07:42;;;;;;;1.08;1.02;;;6.80;99.90;;;;;;5066677;28;20547;-78
2022/11/15 01:10:09;;;;;;;2.38;1.08;;;6.80;99.90;;;;;;5074821;28;21142;-77
2022/11/15 01:12:35;;;;;;;2.30;1.70;;;6.70;99.90;;;;;;5060299;28;20475;-77
2022/11/15 01:15:03;;;;;;;0.98;0.98;;;6.60;99.90;;;;;;5056332;28;20439;-77
2022/11/15 01:17:31;;;;;;;2.90;0.93;;;6.60;99.90;;;;;;5065693;28;20427;-77
2022/11/15 01:20:00;;;;;;;1.10;1.00;;;6.70;99.90;;;;;;5056272;28;20471;-77
2022/11/15 01:22:27;;;;;;;2.45;1.60;;;6.80;99.90;;;;;;5053206;28;20448;-78
2022/11/15 01:24:54;;;;;;;1.77;1.42;;;6.80;99.90;;;;;;5068053;28;20429;-77
2022/11/15 01:27:21;;;;;;;5.35;1.30;;;6.80;99.90;;;;;;5069898;28;20427;-77
2022/11/15 01:29:47;;;;;;;1.33;1.08;;;6.90;99.90;;;;;;5068576;28;20431;-77
2022/11/15 01:32:14;;;;;;;3.15;1.67;;;6.90;99.90;;;;;;5070961;28;20428;-77
2022/11/15 01:34:41;;;;;;;1.20;0.88;;;6.90;99.90;;;;;;5067883;28;20431;-78
2022/11/15 01:37:08;;;;;;;1.90;1.80;;;7.10;99.90;;;;;;5067999;28;20431;-78
2022/11/15 01:39:37;;;;;;;1.25;1.17;;;7.10;99.90;;;;;;5055954;28;20499;-78
2022/11/15 01:42:04;;;;;;;0.93;0.93;;;7.10;99.90;;;;;;5068818;28;20430;-78
2022/11/15 01:44:51;;;;;;;0.65;0.65;;;7.10;99.90;;;;;;5061858;28;20465;-77
2022/11/15 01:47:33;;;;;;;1.17;1.08;;;7.10;99.90;;;;;;5053286;28;20440;-78
2022/11/15 01:50:08;;;;;;;1.20;1.10;;;7.10;99.90;;;;;;5060128;28;20439;-78
2022/11/15 01:52:35;;;;;;;0.68;0.68;;;7.10;99.90;;;;;;5050929;28;20429;-78
2022/11/15 01:55:15;;;;;;;1.30;1.20;;;7.10;99.90;;;;;;5053262;28;20434;-77
2022/11/15 01:57:48;;;;;;;0.85;0.85;;;7.10;99.90;;;;;;5054699;28;20508;-77
2022/11/15 02:00:22;;;;;;;0.73;0.73;;;7.00;99.90;;;;;;5056396;28;20467;-78
2022/11/15 02:02:55;;;;;;;1.27;0.98;;;7.00;99.90;;;;;;5062655;28;20434;-77
2022/11/15 02:05:22;;;;;;;1.20;1.13;;;7.00;99.90;;;;;;5058328;28;20534;-77
2022/11/15 02:07:49;;;;;;;1.23;1.13;;;7.00;99.90;;;;;;5057212;28;20533;-78
2022/11/15 02:10:21;;;;;;;1.55;1.45;;;7.00;99.90;;;;;;5054172;28;20435;-78
2022/11/15 02:12:52;;;;;;;2.10;0.90;;;7.10;99.90;;;;;;5055011;28;20433;-78
2022/11/15 02:15:19;;;;;;;3.05;1.30;;;7.10;99.90;;;;;;5064848;28;20860;-78
2022/11/15 02:18:26;;;;;;;2.40;1.20;;;7.10;99.90;;;;;;5054396;28;20433;-78
2022/11/15 02:21:18;;;;;;;1.80;1.43;;;7.10;99.90;;;;;;5056395;28;20843;-78
2022/11/15 02:24:07;;;;;;;1.20;0.80;;;7.00;99.90;;;;;;5059114;28;20809;-78
2022/11/15 02:26:52;;;;;;;2.10;1.23;;;7.10;99.90;;;;;;5050007;28;20486;-78
2022/11/15 02:29:34;;;;;;;1.70;1.17;;;7.10;99.90;;;;;;5059819;28;20779;-78
2022/11/15 02:32:16;;;;;;;1.33;0.82;;;7.20;99.90;;;;;;5057188;28;20454;-78
2022/11/15 02:35:09;;;;;;;0.60;0.60;;;7.20;99.90;;;;;;5065922;28;20480;-78
2022/11/15 02:37:42;;;;;;;1.50;1.40;;;7.20;99.90;;;;;;5067341;28;20484;-77
2022/11/15 02:40:15;;;;;;;0.80;0.60;;;7.30;99.90;;;;;;5064592;28;20925;-78
2022/11/15 02:45:50;;;;;;;1.13;1.05;;;7.40;99.90;;;;;;5054936;28;20435;-78
2022/11/15 02:48:17;;;;;;;4.55;1.58;;;7.40;99.90;;;;;;5062593;28;20459;-77
2022/11/15 02:50:45;;;;;;;1.80;1.10;;;7.40;99.90;;;;;;5072094;28;20507;-77
2022/11/15 02:53:11;;;;;;;1.50;1.40;;;7.60;99.90;;;;;;5067631;28;20987;-78
2022/11/15 02:55:43;;;;;;;2.05;1.45;;;7.60;99.90;;;;;;5068171;28;20508;-77
2022/11/15 02:58:31;;;;;;;1.48;1.38;;;7.80;99.90;;;;;;5072723;28;20431;-78
2022/11/15 03:01:27;;;;;;;1.40;0.98;;;7.90;99.90;;;;;;5061707;28;20436;-78
2022/11/15 03:03:54;;;;;;;0.60;0.60;;;8.00;99.90;;;;;;5045622;28;20439;-78
2022/11/15 03:06:37;;;;;;;0.73;0.73;;;8.00;99.90;;;;;;5067690;28;20423;-78
2022/11/15 03:09:10;;;;;;;0.57;0.57;;;7.90;99.90;;;;;;5057946;28;20435;-77
2022/11/15 03:11:47;;;;;;;1.42;1.05;;;8.00;99.90;;;;;;5066813;28;20433;-78
2022/11/15 03:14:53;;;;;;;1.00;1.00;;;8.00;99.90;;;;;;5066480;28;20427;-78
2022/11/15 03:17:27;;;;;;;1.60;1.00;;;7.90;99.90;;;;;;5046477;28;20887;-78
2022/11/15 03:19:57;;;;;;;0.73;0.73;;;7.90;99.90;;;;;;5046984;28;20433;-77
2022/11/15 03:22:27;;;;;;;1.50;0.70;;;7.90;99.90;;;;;;5048725;28;20421;-78
2022/11/15 03:24:59;;;;;;;1.23;1.13;;;7.90;99.90;;;;;;5043590;28;20427;-77
2022/11/15 03:27:31;;;;;;;1.10;0.90;;;7.90;99.90;;;;;;5044068;28;20448;-77
2022/11/15 03:30:01;;;;;;;1.00;1.00;;;7.90;99.90;;;;;;5047918;28;20444;-77
2022/11/15 03:32:31;;;;;;;1.00;1.00;;;7.90;99.90;;;;;;5046622;28;20897;-77
2022/11/15 03:35:11;;;;;;;1.38;1.27;;;7.90;99.90;;;;;;5039683;28;20445;-78
2022/11/15 03:37:38;;;;;;;1.20;1.20;;;8.00;99.90;;;;;;5030349;28;20431;-77
2022/11/15 03:40:05;;;;;;;1.30;1.30;;;8.10;99.90;;;;;;5044023;28;20429;-78
2022/11/15 03:42:38;;;;;;;2.13;1.23;;;8.20;99.90;;;;;;5046399;28;20425;-78
2022/11/15 03:45:34;;;;;;;1.67;1.23;;;8.20;99.90;;;;;;5035409;28;20431;-78
2022/11/15 03:48:14;;;;;;;1.23;1.13;;;8.30;99.90;;;;;;5025622;28;20821;-77
2022/11/15 03:50:43;;;;;;;0.63;0.63;;;8.30;99.90;;;;;;5049825;28;20436;-78
2022/11/15 03:53:10;;;;;;;3.00;1.20;;;8.30;99.90;;;;;;5061269;28;20445;-78
2022/11/15 03:55:37;;;;;;;1.05;1.05;;;8.30;99.90;;;;;;5061564;28;20431;-78
2022/11/15 03:58:04;;;;;;;1.90;1.38;;;8.30;99.90;;;;;;5062326;28;20431;-78
2022/11/15 04:00:31;;;;;;;2.40;1.90;;;8.30;99.90;;;;;;5064344;28;20429;-78
2022/11/15 04:02:59;;;;;;;0.85;0.85;;;8.30;99.90;;;;;;5053973;28;20427;-78
2022/11/15 04:05:26;;;;;;;4.85;1.33;;;8.30;99.70;;;;;;5065912;28;20455;-78
2022/11/15 04:07:56;;;;;;;1.27;1.27;;;8.30;96.50;;;;;;5064179;28;20432;-78
2022/11/15 04:10:23;;;;;;;1.70;0.95;;;8.30;93.20;;;;;;5054488;28;20427;-78
2022/11/15 04:12:50;;;;;;;2.25;1.33;;;8.30;90.60;;;;;;5070314;28;20427;-78
2022/11/15 04:15:19;;;;;;;2.03;1.38;;;8.30;88.00;;;;;;5059046;28;20443;-78
2022/11/15 04:17:49;;;;;;;1.83;1.73;;;8.30;88.20;;;;;;5065400;28;20435;-77
2022/11/15 04:26:10;;;;;;;2.35;1.15;;;8.40;76.70;;;;;;5061879;28;20431;-78
2022/11/15 04:31:30;;;;;;;0.95;0.95;;;8.40;68.40;;;;;;5067537;28;20425;-77
2022/11/15 04:33:57;;;;;;;3.67;0.90;;;8.40;60.50;;;;;;5066145;28;20455;-78
2022/11/15 04:39:09;;;;;;;0.98;0.95;;;8.40;37.50;;;;;;5069258;28;20455;-77
2022/11/15 04:41:39;;;;;;;1.27;1.17;;;8.40;19.70;;;;;;5068309;28;20426;-78
2022/11/15 04:44:06;;;;;;;1.20;1.20;;;8.50;10.90;;;;;;5061742;28;20979;-78
2022/11/15 04:46:32;;;;;;;1.02;0.98;;;8.50;1.00;;;;;;5063520;28;20940;-78
2022/11/15 04:49:01;;;;;;;1.13;1.00;;;8.50;1.00;;;;;;5051078;28;20436;-78
2022/11/15 04:51:28;;;;;;;0.77;0.70;;;8.50;1.00;;;;;;5067020;28;20434;-78
2022/11/15 04:53:55;;;;;;;0.90;0.90;;;8.50;1.00;;;;;;5066389;28;21217;-78
2022/11/15 04:56:22;;;;;;;0.77;0.77;;;8.60;1.00;;;;;;5062543;28;20472;-78
2022/11/15 04:58:49;;;;;;;1.50;1.40;;;8.60;1.00;;;;;;5066348;28;20420;-77
2022/11/15 05:01:16;;;;;;;1.10;1.10;;;8.60;1.00;;;;;;5059559;28;20456;-78
2022/11/15 05:06:29;;;;;;;1.10;1.00;;;8.60;1.00;;;;;;5071712;28;20423;-77
2022/11/15 05:08:57;;;;;;;1.05;1.05;;;8.60;1.00;;;;;;5068346;28;20427;-77
2022/11/15 05:11:24;;;;;;;1.20;1.10;;;8.60;1.00;;;;;;5055099;28;20515;-77
2022/11/15 05:13:50;;;;;;;1.05;1.00;;;8.60;1.00;;;;;;5069453;28;20438;-78
2022/11/15 05:16:17;;;;;;;1.40;0.98;;;8.60;1.00;;;;;;5061614;28;21009;-78
2022/11/15 05:18:44;;;;;;;0.93;0.93;;;8.60;1.00;;;;;;5064956;28;20429;-78
2022/11/15 05:21:14;;;;;;;0.83;0.83;;;8.60;1.00;;;;;;5069623;28;20436;-78
2022/11/15 05:23:41;;;;;;;5.90;3.15;;;8.60;1.00;;;;;;5060212;28;20467;-78
2022/11/15 05:26:09;;;;;;;7.47;3.97;;;8.60;1.00;;;;;;5053095;28;20434;-77
2022/11/15 05:28:36;;;;;;;3.40;2.65;;;8.60;1.00;;;;;;5061522;28;20436;-78
2022/11/15 05:31:07;;;;;;;1.83;1.50;;;8.70;99.90;;;;;;5068442;28;20940;-78
2022/11/15 05:33:35;;;;;;;0.80;0.80;;;8.70;99.90;;;;;;5056968;28;20439;-77
2022/11/15 05:36:51;;;;;;;1.63;1.40;;;8.70;99.90;;;;;;5069324;28;20518;-78
2022/11/15 05:39:20;;;;;;;1.10;0.93;;;8.80;34.00;;;;;;5051650;28;20447;-78
2022/11/15 05:41:52;;;;;;;0.77;0.77;;;8.70;1.00;;;;;;5053903;28;20425;-78
2022/11/15 05:44:23;;;;;;;1.52;1.05;;;8.70;1.00;;;;;;5078137;28;20424;-78
2022/11/15 05:46:53;;;;;;;1.92;1.10;;;8.80;99.90;;;;;;5068203;28;20428;-78
2022/11/15 05:49:22;;;;;;;2.40;1.20;;;8.80;99.90;;;;;;5063125;28;20433;-78
2022/11/15 05:51:51;;;;;;;1.10;1.10;;;8.80;99.90;;;;;;5063817;28;20424;-78
2022/11/15 05:54:19;;;;;;;1.03;1.03;;;8.80;99.90;;;;;;5067223;28;20429;-79
2022/11/15 05:56:46;;;;;;;1.02;1.02;;;8.70;98.70;;;;;;5063520;28;20440;-79
2022/11/15 05:59:20;;;;;;;1.20;0.93;;;8.70;99.90;;;;;;5056245;28;20438;-78
2022/11/15 06:01:47;;;;;;;0.88;0.88;;;8.70;99.90;;;;;;5063983;28;20952;-78
2022/11/15 06:04:14;;;;;;;1.65;1.55;;;8.60;99.90;;;;;;5075048;28;20482;-78
2022/11/15 06:06:40;;;;;;;1.10;1.10;;;8.60;1.00;;;;;;5060034;28;20423;-78
2022/11/15 06:09:08;;;;;;;0.93;0.82;;;8.60;1.00;;;;;;5061173;28;20427;-78
2022/11/15 06:11:35;;;;;;;2.65;1.23;;;8.60;41.30;;;;;;5069453;28;20415;-78
2022/11/15 06:14:02;;;;;;;1.25;1.13;;;8.60;99.90;;;;;;5067295;28;21099;-78
2022/11/15 06:16:28;;;;;;;0.90;0.90;;;8.60;99.90;;;;;;5066009;28;20431;-78
2022/11/15 06:18:57;;;;;;;0.80;0.80;;;8.60;99.90;;;;;;5062705;28;20497;-78
2022/11/15 06:21:24;;;;;;;1.85;1.25;;;8.60;99.90;;;;;;5066587;28;20448;-78
2022/11/15 06:23:51;;;;;;;2.10;1.45;;;8.60;99.90;;;;;;5059108;28;22832;-79
2022/11/15 06:26:17;;;;;;;1.13;1.03;;;8.60;99.90;;;;;;5065393;28;21183;-79
2022/11/15 06:29:28;;;;;;;0.50;0.50;;;8.60;99.90;;;;;;5069675;28;20428;-80
2022/11/15 06:31:55;;;;;;;0.80;0.80;;;8.60;99.90;;;;;;5075007;28;20428;-79
2022/11/15 06:34:22;;;;;;;6.13;3.63;;;8.50;99.90;;;;;;5070251;28;20490;-80
2022/11/15 06:36:48;;;;;;;1.10;1.05;;;8.40;99.90;;;;;;5060431;28;20428;-78
2022/11/15 06:39:15;;;;;;;1.45;1.42;;;8.40;99.90;;;;;;5057941;28;20439;-79
2022/11/15 06:41:42;;;;;;;2.63;1.67;;;8.40;99.90;;;;;;5068435;28;20438;-79
2022/11/15 06:44:09;;;;;;;0.93;0.90;;;8.40;1.00;;;;;;5059676;28;20498;-79
2022/11/15 06:46:35;;;;;;;0.80;0.80;;;8.30;1.00;;;;;;5063825;28;20436;-79
2022/11/15 06:49:04;;;;;;;1.13;1.13;;;8.40;1.00;;;;;;5059312;28;20427;-80
2022/11/15 06:51:35;;;;;;;1.25;1.25;;;8.40;1.00;;;;;;5062336;28;20465;-79
2022/11/15 06:54:02;;;;;;;7.03;5.13;;;8.50;1.00;;;;;;5058020;28;20425;-79
2022/11/15 06:56:29;;;;;;;14.03;6.43;;;8.50;1.00;;;;;;5057427;28;20483;-79
2022/11/15 06:58:56;;;;;;;4.28;3.05;;;8.60;1.00;;;;;;5063478;28;20429;-80
2022/11/15 07:01:22;;;;;;;3.53;2.42;;;8.60;1.00;;;;;;5057008;28;20444;-79
2022/11/15 07:03:49;;;;;;;1.15;1.05;;;8.60;1.00;;;;;;5067933;28;21143;-79
2022/11/15 07:06:16;;;;;;;1.10;1.10;;;8.70;1.00;;;;;;5062124;28;20488;-79
2022/11/15 07:08:45;;;;;;;1.48;1.38;;;8.70;1.00;;;;;;5070618;28;20504;-80
2022/11/15 07:11:12;;;;;;;1.48;1.10;;;8.80;1.00;;;;;;5058091;28;20436;-79
2022/11/15 07:13:57;;;;;;;2.47;1.00;;;8.80;1.00;;;;;;5062855;28;20427;-79
2022/11/15 07:16:43;;;;;;;1.10;1.10;;;8.80;1.00;;;;;;5068006;28;20434;-79
2022/11/15 07:19:10;;;;;;;1.27;1.17;;;8.90;1.00;;;;;;5062224;28;20514;-79
2022/11/15 07:21:36;;;;;;;1.15;1.10;;;9.10;26.80;;;;;;5068792;28;20424;-80
2022/11/15 07:24:18;;;;;;;0.80;0.80;;;9.30;70.30;;;;;;5059280;28;20786;-79
2022/11/15 07:26:51;;;;;;;1.98;1.02;;;9.30;51.30;;;;;;5066477;28;20429;-80
2022/11/15 07:29:18;;;;;;;0.73;0.73;;;9.30;10.60;;;;;;5070066;28;20434;-79
2022/11/15 07:31:44;;;;;;;2.23;1.30;;;9.30;1.00;;;;;;5059315;28;20440;-79
2022/11/15 07:34:11;;;;;;;1.60;1.55;;;9.20;1.00;;;;;;5063523;28;20851;-79
2022/11/15 07:36:41;;;;;;;2.40;1.30;;;9.30;1.00;;;;;;5056846;28;20493;-79
2022/11/15 07:39:07;;;;;;;1.00;1.00;;;9.30;1.00;;;;;;5066912;28;20435;-79
2022/11/15 07:41:34;;;;;;;2.55;1.20;;;9.40;1.00;;;;;;5062787;28;20445;-79
2022/11/15 07:44:03;;;;;;;1.20;0.90;;;9.40;1.00;;;;;;5059752;28;20424;-79
2022/11/15 07:46:32;;;;;;;1.00;1.00;;;9.40;1.00;;;;;;5053740;28;20544;-78
2022/11/15 07:48:59;;;;;;;0.95;0.90;;;9.50;1.00;;;;;;5065248;28;20423;-79
2022/11/15 07:51:26;;;;;;;1.08;1.08;;;9.50;1.00;;;;;;5063803;28;20433;-79
2022/11/15 07:53:52;;;;;;;1.25;1.15;;;9.60;1.00;;;;;;5054458;28;20524;-80
2022/11/15 07:56:27;;;;;;;1.50;1.10;;;9.70;1.00;;;;;;5067613;28;20473;-79
2022/11/15 07:58:57;;;;;;;1.27;1.17;;;9.60;99.90;;;;;;5068059;28;20511;-79
2022/11/15 08:01:27;;;;;;;0.50;0.50;;;9.70;99.90;;;;;;5058435;28;20425;-79
2022/11/15 08:03:53;;;;;;;0.65;0.65;;;9.70;99.90;;;;;;5061471;28;20440;-79
2022/11/15 08:06:20;;;;;;;0.73;0.73;;;9.80;99.90;;;;;;5064391;28;20435;-79
2022/11/15 08:08:47;;;;;;;1.02;1.02;;;9.90;99.90;;;;;;5064454;28;20474;-79
2022/11/15 08:11:14;;;;;;;1.13;1.00;;;10.00;1.00;;;;;;5064383;28;20434;-79
2022/11/15 08:13:55;;;;;;;1.13;1.13;;;10.10;99.90;;;;;;5061819;28;20436;-79
2022/11/15 08:16:22;;;;;;;2.75;0.82;;;10.30;99.90;;;;;;5069690;28;20443;-79
2022/11/15 08:18:48;;;;;;;1.15;0.70;;;10.50;1.00;;;;;;5066994;28;20443;-79
2022/11/15 08:21:19;;;;;;;0.85;0.85;;;10.60;99.90;;;;;;5076968;28;20431;-79
2022/11/15 08:23:46;;;;;;;0.90;0.90;;;10.70;99.90;;;;;;5069182;28;20425;-79
2022/11/15 08:26:13;;;;;;;0.70;0.70;;;10.70;99.90;;;;;;5057183;28;20429;-79
2022/11/15 08:28:39;;;;;;;0.95;0.85;;;10.70;99.90;;;;;;5068885;28;20427;-79
2022/11/15 08:31:06;;;;;;;0.65;0.65;;;10.50;99.90;;;;;;5063881;28;20437;-79
2022/11/15 08:33:36;;;;;;;1.88;0.85;;;10.50;99.90;;;;;;5069785;28;20482;-79
2022/11/15 08:36:03;;;;;;;0.90;0.90;;;10.50;99.90;;;;;;5066375;28;20429;-79
2022/11/15 08:38:30;;;;;;;2.20;1.13;;;10.50;99.90;;;;;;5061660;28;20432;-78
2022/11/15 08:41:11;;;;;;;0.85;0.85;;;10.40;99.90;;;;;;5065235;28;20431;-78
2022/11/15 08:43:37;;;;;;;0.85;0.82;;;10.50;99.90;;;;;;5060430;28;20491;-79
2022/11/15 08:46:04;;;;;;;3.25;1.27;;;10.40;99.90;;;;;;5060695;28;20449;-77
2022/11/15 08:48:31;;;;;;;1.20;1.20;;;10.50;99.90;;;;;;5066518;28;20423;-78
2022/11/15 08:50:58;;;;;;;1.67;1.13;;;10.70;99.90;;;;;;5064255;28;20482;-78
2022/11/15 08:53:25;;;;;;;1.20;0.65;;;10.80;99.90;;;;;;5071370;28;20442;-78
2022/11/15 08:55:52;;;;;;;1.17;1.05;;;11.00;99.90;;;;;;5069903;28;20423;-78
2022/11/15 08:58:21;;;;;;;0.98;0.70;;;11.00;99.90;;;;;;5068705;28;20910;-77
2022/11/15 09:00:48;;;;;;;0.80;0.80;;;11.10;99.90;;;;;;5058674;28;20427;-78
2022/11/15 09:03:23;;;;;;;1.23;1.23;;;11.20;99.90;;;;;;5066298;28;20788;-78
2022/11/15 09:05:55;;;;;;;2.20;1.20;;;11.10;99.90;;;;;;5067582;28;20423;-78
2022/11/15 09:08:25;;;;;;;1.75;1.20;;;11.10;99.90;;;;;;5063214;28;20444;-78
2022/11/15 09:11:12;;;;;;;0.90;0.90;;;11.00;99.90;;;;;;5066089;28;20420;-79
2022/11/15 09:13:39;;;;;;;3.80;0.90;;;11.10;99.90;;;;;;5056009;28;20437;-78
2022/11/15 09:16:06;;;;;;;1.48;1.38;;;11.10;99.90;;;;;;5060454;28;20431;-78
2022/11/15 09:18:33;;;;;;;1.05;1.02;;;11.20;99.90;;;;;;5066811;28;20434;-78
2022/11/15 09:21:02;;;;;;;1.50;0.80;;;11.30;99.90;;;;;;5067380;28;20459;-79
2022/11/15 09:23:29;;;;;;;1.40;1.30;;;11.30;99.90;;;;;;5062459;28;20431;-78
2022/11/15 09:26:04;;;;;;;1.00;1.00;;;11.20;99.90;;;;;;5067282;28;20427;-78
2022/11/15 09:28:32;;;;;;;0.93;0.90;;;11.30;99.90;;;;;;5058767;28;20435;-78
2022/11/15 09:31:01;;;;;;;1.40;1.30;;;11.50;99.90;;;;;;5059124;28;20494;-78
2022/11/15 09:33:28;;;;;;;1.70;1.60;;;11.70;99.90;;;;;;5082431;28;20483;-79
2022/11/15 09:36:08;;;;;;;0.95;0.95;;;11.90;99.90;;;;;;5065714;28;20427;-78
2022/11/15 09:38:35;;;;;;;1.10;1.00;;;12.10;99.90;;;;;;5061849;28;20428;-79
2022/11/15 09:41:25;;;;;;;1.25;1.23;;;12.20;99.90;;;;;;5059374;28;20940;-78
2022/11/15 09:44:07;;;;;;;1.77;1.20;;;12.40;99.90;;;;;;5059587;28;20509;-78
2022/11/15 09:46:55;;;;;;;1.10;1.00;;;12.50;99.90;;;;;;5058499;28;20424;-79
2022/11/15 09:49:22;;;;;;;1.33;1.13;;;12.60;99.90;;;;;;5064052;28;20427;-78
2022/11/15 09:51:52;;;;;;;4.27;1.50;;;12.70;99.90;;;;;;5053658;28;20432;-78
2022/11/15 09:54:29;;;;;;;1.00;1.00;;;12.80;99.90;;;;;;5052034;28;21151;-79
2022/11/15 09:57:20;;;;;;;1.27;0.90;;;12.60;99.90;;;;;;5055918;28;20898;-78
2022/11/15 10:00:16;;;;;;;1.38;1.38;;;12.60;99.90;;;;;;5069677;28;20506;-78
2022/11/15 10:03:16;;;;;;;1.23;1.13;;;12.40;99.90;;;;;;5065441;28;20485;-78
2022/11/15 10:05:47;;;;;;;0.77;0.77;;;12.20;99.90;;;;;;5062690;28;20485;-78
2022/11/15 10:08:35;;;;;;;0.80;0.80;;;12.00;99.90;;;;;;5061118;28;20961;-78
2022/11/15 10:11:10;;;;;;;2.00;1.20;;;11.90;99.90;;;;;;5050144;28;20435;-78
2022/11/15 10:14:01;;;;;;;1.35;1.05;;;11.80;99.90;;;;;;5073453;28;20429;-78
2022/11/15 10:16:40;;;;;;;0.85;0.85;;;11.80;99.90;;;;;;5073032;28;20473;-78
2022/11/15 10:19:42;;;;;;;1.42;1.33;;;11.80;99.90;;;;;;5056170;28;20805;-78
2022/11/15 10:22:39;;;;;;;1.80;1.58;;;11.80;99.90;;;;;;5069206;28;20972;-79
2022/11/15 10:25:09;;;;;;;4.40;0.90;;;11.90;99.90;;;;;;5063577;28;20419;-78
2022/11/15 10:27:40;;;;;;;0.95;0.95;;;11.80;99.90;;;;;;5063513;28;20438;-78
2022/11/15 10:30:17;;;;;;;0.90;0.90;;;11.70;99.90;;;;;;5070495;28;20435;-78
2022/11/15 10:32:49;;;;;;;6.20;1.15;;;11.70;99.90;;;;;;5054898;28;20421;-78
2022/11/15 10:35:28;;;;;;;0.93;0.82;;;11.60;99.90;;;;;;5077854;28;20434;-77
2022/11/15 10:38:11;;;;;;;1.30;1.20;;;11.50;99.90;;;;;;5054176;28;20912;-77
2022/11/15 10:40:43;;;;;;;1.33;1.23;;;11.50;99.90;;;;;;5050891;28;20505;-77
2022/11/15 10:43:17;;;;;;;1.15;1.02;;;11.40;99.90;;;;;;5064114;28;20950;-78
2022/11/15 10:45:45;;;;;;;1.27;1.08;;;11.30;99.90;;;;;;5062961;28;20425;-77
2022/11/15 10:48:22;;;;;;;1.27;0.88;;;11.20;99.90;;;;;;5062016;28;20438;-78
2022/11/15 10:50:51;;;;;;;1.15;0.80;;;11.40;99.90;;;;;;5067001;28;20431;-77
2022/11/15 10:53:38;;;;;;;1.20;1.15;;;11.50;99.90;;;;;;5071471;28;20426;-78
2022/11/15 10:56:11;;;;;;;1.27;1.17;;;11.60;99.90;;;;;;5079804;28;20840;-78
2022/11/15 10:58:44;;;;;;;1.10;0.97;;;11.60;99.90;;;;;;5071372;28;20427;-78
2022/11/15 11:01:47;;;;;;;0.98;0.98;;;11.70;99.90;;;;;;5072562;28;20469;-78
2022/11/15 11:04:14;;;;;;;0.95;0.95;;;11.80;99.90;;;;;;5064734;28;20475;-78
2022/11/15 11:06:57;;;;;;;1.30;1.20;;;11.80;99.90;;;;;;5058512;28;20433;-78
2022/11/15 11:09:38;;;;;;;2.35;1.02;;;11.90;99.90;;;;;;5062459;28;20455;-77
2022/11/15 11:12:10;;;;;;;1.58;1.00;;;12.10;99.90;;;;;;5072775;28;20506;-78
2022/11/15 11:14:39;;;;;;;1.15;1.05;;;12.40;99.90;;;;;;5080080;28;20434;-78
2022/11/15 11:17:32;;;;;;;1.90;1.02;;;12.40;99.90;;;;;;5062352;28;20440;-78
2022/11/15 11:20:38;;;;;;;1.20;1.17;;;12.40;99.90;;;;;;5057612;28;20917;-78
2022/11/15 11:23:32;;;;;;;1.35;1.15;;;12.40;99.90;;;;;;5075555;28;20815;-78
2022/11/15 11:26:31;;;;;;;2.65;0.95;;;12.40;99.90;;;;;;5073872;28;20436;-78
2022/11/15 11:29:06;;;;;;;1.17;1.17;;;12.40;99.90;;;;;;5085613;28;20421;-78
2022/11/15 11:31:57;;;;;;;1.30;1.20;;;12.70;99.90;;;;;;5086931;28;20438;-78
2022/11/15 11:34:45;;;;;;;2.63;0.90;;;12.80;99.90;;;;;;5067534;28;20427;-78
2022/11/15 11:37:47;;;;;;;0.93;0.73;;;12.70;99.90;;;;;;5061175;28;20500;-78
2022/11/15 11:40:36;;;;;;;0.77;0.77;;;12.90;99.90;;;;;;5062431;28;20437;-78
2022/11/15 11:43:22;;;;;;;0.98;0.98;;;12.70;99.90;;;;;;5052049;28;20435;-78
2022/11/15 11:46:33;;;;;;;1.00;1.00;;;12.60;99.90;;;;;;5052616;28;20433;-78
2022/11/15 11:49:09;;;;;;;1.85;1.48;;;12.60;99.90;;;;;;5045238;28;20425;-78
2022/11/15 11:51:48;;;;;;;1.13;1.02;;;12.60;99.90;;;;;;5049572;28;20429;-78
2022/11/15 11:55:13;;;;;;;1.00;1.00;;;12.70;99.90;;;;;;5048892;28;20515;-78
2022/11/15 11:57:51;;;;;;;1.00;1.00;;;12.80;99.90;;;;;;4969784;28;21001;-78
2022/11/15 12:00:28;;;;;;;1.08;1.00;;;12.70;99.90;;;;;;4967430;28;20537;-78
2022/11/15 12:02:58;;;;;;;0.98;0.98;;;12.80;99.90;;;;;;4977769;28;20432;-77
2022/11/15 12:05:41;;;;;;;1.13;1.13;;;12.90;99.90;;;;;;4970908;28;20454;-78
2022/11/15 12:08:23;;;;;;;3.78;1.25;;;13.10;99.90;;;;;;4970153;28;20812;-78
2022/11/15 12:11:00;;;;;;;1.58;1.17;;;13.30;99.90;;;;;;4969626;28;20883;-78
2022/11/15 12:13:33;;;;;;;1.00;1.00;;;13.40;99.90;;;;;;4970210;28;20468;-77
2022/11/15 12:16:25;;;;;;;1.20;0.93;;;13.60;99.90;;;;;;4969980;28;20447;-78
2022/11/15 12:18:58;;;;;;;0.98;0.98;;;13.80;99.90;;;;;;4972705;28;20491;-78
2022/11/15 12:21:36;;;;;;;1.33;1.23;;;13.90;99.90;;;;;;4970296;28;20478;-78
2022/11/15 12:24:26;;;;;;;1.20;1.00;;;14.00;99.90;;;;;;4969035;28;21154;-77
2022/11/15 12:27:07;;;;;;;1.30;1.20;;;13.80;99.90;;;;;;5011057;28;20433;-78
2022/11/15 12:29:43;;;;;;;0.97;0.97;;;13.70;99.90;;;;;;5066427;28;20426;-78
2022/11/15 12:32:37;;;;;;;1.10;1.10;;;13.40;99.90;;;;;;5067263;28;20436;-77
2022/11/15 12:35:21;;;;;;;0.80;0.80;;;13.10;99.90;;;;;;5072141;28;20442;-78
2022/11/15 12:37:55;;;;;;;0.88;0.88;;;13.00;99.90;;;;;;5079164;28;20438;-78
2022/11/15 12:40:33;;;;;;;0.70;0.70;;;13.00;99.90;;;;;;5073326;28;20432;-78
2022/11/15 12:43:30;;;;;;;1.10;1.00;;;13.10;99.90;;;;;;5061711;28;20440;-78
2022/11/15 12:46:04;;;;;;;1.60;1.10;;;13.20;99.90;;;;;;5061746;28;20433;-78
2022/11/15 12:48:36;;;;;;;7.70;1.15;;;13.20;99.90;;;;;;5068820;28;20438;-78
2022/11/15 12:51:03;;;;;;;0.82;0.82;;;13.30;99.90;;;;;;5070289;28;20423;-78
2022/11/15 12:53:33;;;;;;;1.00;0.95;;;13.40;99.90;;;;;;5067008;28;20433;-79
2022/11/15 12:56:18;;;;;;;3.30;1.13;;;13.60;99.90;;;;;;5057946;28;20442;-78
2022/11/15 12:58:59;;;;;;;1.20;1.10;;;13.70;99.90;;;;;;5071579;28;20477;-78
2022/11/15 13:01:35;;;;;;;2.80;1.30;;;13.90;99.90;;;;;;5069804;28;20439;-77
2022/11/15 13:04:26;;;;;;;2.70;0.90;;;13.80;99.90;;;;;;5068188;28;20437;-77
2022/11/15 13:06:56;;;;;;;0.98;0.90;;;13.70;99.90;;;;;;5065461;28;20431;-77
2022/11/15 13:09:35;;;;;;;0.65;0.65;;;13.70;99.90;;;;;;5076826;28;20466;-78
2022/11/15 13:12:22;;;;;;;0.87;0.87;;;13.60;99.90;;;;;;5072298;28;20430;-78
2022/11/15 13:14:58;;;;;;;1.38;1.00;;;13.60;99.90;;;;;;5068501;28;23628;-78
2022/11/15 13:17:26;;;;;;;0.95;0.93;;;13.80;99.90;;;;;;5075692;28;20821;-78
2022/11/15 13:19:58;;;;;;;0.93;0.93;;;13.80;99.90;;;;;;5068701;28;20433;-78
2022/11/15 13:25:18;;;;;;;2.50;0.70;;;13.80;99.90;;;;;;5070272;28;20423;-78
2022/11/15 13:27:48;;;;;;;0.60;0.60;;;13.90;99.90;;;;;;5066006;28;20860;-78
2022/11/15 13:30:29;;;;;;;1.05;0.73;;;13.80;99.90;;;;;;5059282;28;20433;-79
2022/11/15 13:33:07;;;;;;;1.20;1.10;;;13.80;99.90;;;;;;5060545;28;20433;-78
2022/11/15 13:35:40;;;;;;;0.88;0.88;;;13.80;99.90;;;;;;5050416;28;20479;-79
2022/11/15 13:38:19;;;;;;;1.27;0.95;;;13.70;99.90;;;;;;5057095;28;20436;-78
2022/11/15 13:40:46;;;;;;;0.55;0.55;;;13.60;99.90;;;;;;5054972;28;21127;-78
2022/11/15 13:43:28;;;;;;;0.50;0.50;;;13.70;99.90;;;;;;5052787;28;20429;-78
2022/11/15 13:46:17;;;;;;;0.40;0.40;;;13.70;99.90;;;;;;5079106;28;21103;-78
2022/11/15 13:48:57;;;;;;;0.50;0.40;;;13.80;99.90;;;;;;5055088;28;20497;-78